sensor_id;sensor_type;location;lat;lon;timestamp;pressure;altitude;pressure_sealevel;temperature
14784;BMP180;7483;50.498;12.138;2022-11-20T00:01:33;95074.00;;;-5.80
14784;BMP180;7483;50.498;12.138;2022-11-20T00:04:02;95091.00;;;-5.70
14784;BMP180;7483;50.498;12.138;2022-11-20T00:06:30;95122.00;;;-5.70
14784;BMP180;7483;50.498;12.138;2022-11-20T00:08:59;95112.00;;;-5.70
14784;BMP180;7483;50.498;12.138;2022-11-20T00:11:30;95102.00;;;-5.60
14784;BMP180;7483;50.498;12.138;2022-11-20T00:14:01;95139.00;;;-5.70
14784;BMP180;7483;50.498;12.138;2022-11-20T00:16:32;95234.00;;;-5.50
14784;BMP180;7483;50.498;12.138;2022-11-20T00:19:01;95160.00;;;-5.50
14784;BMP180;7483;50.498;12.138;2022-11-20T00:21:30;95132.00;;;-5.50
14784;BMP180;7483;50.498;12.138;2022-11-20T00:23:58;95051.00;;;-5.40
14784;BMP180;7483;50.498;12.138;2022-11-20T00:26:28;95179.00;;;-5.50
14784;BMP180;7483;50.498;12.138;2022-11-20T00:28:59;95139.00;;;-5.50
14784;BMP180;7483;50.498;12.138;2022-11-20T00:31:29;95135.00;;;-5.50
14784;BMP180;7483;50.498;12.138;2022-11-20T00:33:58;95225.00;;;-5.50
14784;BMP180;7483;50.498;12.138;2022-11-20T00:36:28;95172.00;;;-5.50
14784;BMP180;7483;50.498;12.138;2022-11-20T00:38:59;95113.00;;;-5.60
14784;BMP180;7483;50.498;12.138;2022-11-20T00:41:29;95119.00;;;-5.50
14784;BMP180;7483;50.498;12.138;2022-11-20T00:43:57;95105.00;;;-5.40
14784;BMP180;7483;50.498;12.138;2022-11-20T00:46:27;95152.00;;;-5.40
14784;BMP180;7483;50.498;12.138;2022-11-20T00:48:57;95163.00;;;-5.30
14784;BMP180;7483;50.498;12.138;2022-11-20T00:51:27;95465.00;;;-5.20
14784;BMP180;7483;50.498;12.138;2022-11-20T00:53:56;95261.00;;;-5.20
14784;BMP180;7483;50.498;12.138;2022-11-20T00:56:24;95271.00;;;-5.10
14784;BMP180;7483;50.498;12.138;2022-11-20T00:58:52;95258.00;;;-5.20
14784;BMP180;7483;50.498;12.138;2022-11-20T01:01:23;95263.00;;;-5.30
14784;BMP180;7483;50.498;12.138;2022-11-20T01:03:54;95269.00;;;-5.30
14784;BMP180;7483;50.498;12.138;2022-11-20T01:06:26;95277.00;;;-5.30
14784;BMP180;7483;50.498;12.138;2022-11-20T01:08:57;95347.00;;;-5.20
14784;BMP180;7483;50.498;12.138;2022-11-20T01:11:28;95194.00;;;-5.30
14784;BMP180;7483;50.498;12.138;2022-11-20T01:13:59;95250.00;;;-5.80
14784;BMP180;7483;50.498;12.138;2022-11-20T01:16:31;95215.00;;;-5.40
14784;BMP180;7483;50.498;12.138;2022-11-20T01:19:03;95280.00;;;-5.30
14784;BMP180;7483;50.498;12.138;2022-11-20T01:21:36;95209.00;;;-5.40
14784;BMP180;7483;50.498;12.138;2022-11-20T01:24:07;95250.00;;;-5.40
14784;BMP180;7483;50.498;12.138;2022-11-20T01:26:38;95257.00;;;-5.50
14784;BMP180;7483;50.498;12.138;2022-11-20T01:29:10;95218.00;;;-5.60
14784;BMP180;7483;50.498;12.138;2022-11-20T01:31:41;95215.00;;;-5.70
14784;BMP180;7483;50.498;12.138;2022-11-20T01:34:12;95227.00;;;-5.70
14784;BMP180;7483;50.498;12.138;2022-11-20T01:36:44;95243.00;;;-5.70
14784;BMP180;7483;50.498;12.138;2022-11-20T01:39:15;95321.00;;;-6.00
14784;BMP180;7483;50.498;12.138;2022-11-20T01:41:46;95325.00;;;-5.80
14784;BMP180;7483;50.498;12.138;2022-11-20T01:44:56;95203.00;;;-5.80
14784;BMP180;7483;50.498;12.138;2022-11-20T01:47:31;95281.00;;;-5.90
14784;BMP180;7483;50.498;12.138;2022-11-20T01:50:12;95344.00;;;-5.90
14784;BMP180;7483;50.498;12.138;2022-11-20T01:52:49;95190.00;;;-6.00
14784;BMP180;7483;50.498;12.138;2022-11-20T01:55:23;95085.00;;;-6.00
14784;BMP180;7483;50.498;12.138;2022-11-20T01:57:53;95022.00;;;-6.00
14784;BMP180;7483;50.498;12.138;2022-11-20T02:00:21;95052.00;;;-6.10
14784;BMP180;7483;50.498;12.138;2022-11-20T02:02:54;95040.00;;;-6.20
14784;BMP180;7483;50.498;12.138;2022-11-20T02:05:28;95103.00;;;-6.20
14784;BMP180;7483;50.498;12.138;2022-11-20T02:07:59;95085.00;;;-6.20
14784;BMP180;7483;50.498;12.138;2022-11-20T02:10:29;95253.00;;;-6.00
14784;BMP180;7483;50.498;12.138;2022-11-20T02:12:57;95350.00;;;-5.90
14784;BMP180;7483;50.498;12.138;2022-11-20T02:15:43;95044.00;;;-6.00
14784;BMP180;7483;50.498;12.138;2022-11-20T02:18:14;95177.00;;;-5.90
14784;BMP180;7483;50.498;12.138;2022-11-20T02:20:46;95023.00;;;-5.90
14784;BMP180;7483;50.498;12.138;2022-11-20T02:23:25;95060.00;;;-5.80
14784;BMP180;7483;50.498;12.138;2022-11-20T02:25:58;95116.00;;;-5.80
14784;BMP180;7483;50.498;12.138;2022-11-20T02:28:27;95210.00;;;-5.80
14784;BMP180;7483;50.498;12.138;2022-11-20T02:30:56;95271.00;;;-5.60
14784;BMP180;7483;50.498;12.138;2022-11-20T02:33:24;95179.00;;;-5.50
14784;BMP180;7483;50.498;12.138;2022-11-20T02:35:52;95092.00;;;-5.60
14784;BMP180;7483;50.498;12.138;2022-11-20T02:38:20;95140.00;;;-5.60
14784;BMP180;7483;50.498;12.138;2022-11-20T02:40:49;95415.00;;;-5.60
14784;BMP180;7483;50.498;12.138;2022-11-20T02:43:23;95161.00;;;-5.60
14784;BMP180;7483;50.498;12.138;2022-11-20T02:45:51;95170.00;;;-5.60
14784;BMP180;7483;50.498;12.138;2022-11-20T02:48:19;95408.00;;;-5.40
14784;BMP180;7483;50.498;12.138;2022-11-20T02:50:50;95195.00;;;-5.20
14784;BMP180;7483;50.498;12.138;2022-11-20T02:53:18;95260.00;;;-5.00
14784;BMP180;7483;50.498;12.138;2022-11-20T02:55:46;95381.00;;;-4.80
14784;BMP180;7483;50.498;12.138;2022-11-20T02:58:14;95282.00;;;-4.70
14784;BMP180;7483;50.498;12.138;2022-11-20T03:00:44;95281.00;;;-4.50
14784;BMP180;7483;50.498;12.138;2022-11-20T03:03:12;95248.00;;;-4.50
14784;BMP180;7483;50.498;12.138;2022-11-20T03:05:40;95290.00;;;-4.50
14784;BMP180;7483;50.498;12.138;2022-11-20T03:08:08;95280.00;;;-4.50
14784;BMP180;7483;50.498;12.138;2022-11-20T03:10:36;95307.00;;;-4.40
14784;BMP180;7483;50.498;12.138;2022-11-20T03:13:04;95350.00;;;-4.30
14784;BMP180;7483;50.498;12.138;2022-11-20T03:15:32;95400.00;;;-4.40
14784;BMP180;7483;50.498;12.138;2022-11-20T03:18:01;95380.00;;;-4.30
14784;BMP180;7483;50.498;12.138;2022-11-20T03:20:30;95195.00;;;-4.30
14784;BMP180;7483;50.498;12.138;2022-11-20T03:23:00;95284.00;;;-4.30
14784;BMP180;7483;50.498;12.138;2022-11-20T03:25:28;95223.00;;;-4.20
14784;BMP180;7483;50.498;12.138;2022-11-20T03:27:56;95227.00;;;-4.20
14784;BMP180;7483;50.498;12.138;2022-11-20T03:30:24;95244.00;;;-4.20
14784;BMP180;7483;50.498;12.138;2022-11-20T03:32:56;95236.00;;;-4.10
14784;BMP180;7483;50.498;12.138;2022-11-20T03:35:26;95260.00;;;-4.10
14784;BMP180;7483;50.498;12.138;2022-11-20T03:37:54;95252.00;;;-4.00
14784;BMP180;7483;50.498;12.138;2022-11-20T03:40:22;95264.00;;;-3.90
14784;BMP180;7483;50.498;12.138;2022-11-20T03:42:50;95303.00;;;-3.80
14784;BMP180;7483;50.498;12.138;2022-11-20T03:45:19;95328.00;;;-3.80
14784;BMP180;7483;50.498;12.138;2022-11-20T03:47:47;95389.00;;;-3.80
14784;BMP180;7483;50.498;12.138;2022-11-20T03:50:15;95461.00;;;-3.70
14784;BMP180;7483;50.498;12.138;2022-11-20T03:52:45;95397.00;;;-3.80
14784;BMP180;7483;50.498;12.138;2022-11-20T03:55:13;95432.00;;;-3.80
14784;BMP180;7483;50.498;12.138;2022-11-20T03:57:41;95305.00;;;-3.80
14784;BMP180;7483;50.498;12.138;2022-11-20T04:00:11;95336.00;;;-3.80
14784;BMP180;7483;50.498;12.138;2022-11-20T04:02:39;95436.00;;;-3.70
14784;BMP180;7483;50.498;12.138;2022-11-20T04:05:08;95347.00;;;-3.70
14784;BMP180;7483;50.498;12.138;2022-11-20T04:07:36;95275.00;;;-3.70
14784;BMP180;7483;50.498;12.138;2022-11-20T04:10:07;95266.00;;;-3.70
14784;BMP180;7483;50.498;12.138;2022-11-20T04:12:35;95094.00;;;-3.70
14784;BMP180;7483;50.498;12.138;2022-11-20T04:15:04;95094.00;;;-3.70
14784;BMP180;7483;50.498;12.138;2022-11-20T04:17:32;95086.00;;;-3.80
14784;BMP180;7483;50.498;12.138;2022-11-20T04:20:00;95275.00;;;-3.60
14784;BMP180;7483;50.498;12.138;2022-11-20T04:22:28;95002.00;;;-3.70
14784;BMP180;7483;50.498;12.138;2022-11-20T04:24:56;95128.00;;;-3.60
14784;BMP180;7483;50.498;12.138;2022-11-20T04:27:26;95295.00;;;-3.60
14784;BMP180;7483;50.498;12.138;2022-11-20T04:29:54;95188.00;;;-3.60
14784;BMP180;7483;50.498;12.138;2022-11-20T04:32:22;95033.00;;;-3.60
14784;BMP180;7483;50.498;12.138;2022-11-20T04:34:50;95204.00;;;-3.50
14784;BMP180;7483;50.498;12.138;2022-11-20T04:37:18;95125.00;;;-3.50
14784;BMP180;7483;50.498;12.138;2022-11-20T04:39:46;95141.00;;;-3.50
14784;BMP180;7483;50.498;12.138;2022-11-20T04:42:14;94998.00;;;-3.60
14784;BMP180;7483;50.498;12.138;2022-11-20T04:44:59;94938.00;;;-3.60
14784;BMP180;7483;50.498;12.138;2022-11-20T04:47:27;95045.00;;;-3.50
14784;BMP180;7483;50.498;12.138;2022-11-20T04:49:55;95088.00;;;-3.50
14784;BMP180;7483;50.498;12.138;2022-11-20T04:52:23;95053.00;;;-3.50
14784;BMP180;7483;50.498;12.138;2022-11-20T04:54:51;95102.00;;;-3.50
14784;BMP180;7483;50.498;12.138;2022-11-20T04:57:20;94976.00;;;-3.40
14784;BMP180;7483;50.498;12.138;2022-11-20T04:59:48;94961.00;;;-3.50
14784;BMP180;7483;50.498;12.138;2022-11-20T05:02:18;94950.00;;;-3.40
14784;BMP180;7483;50.498;12.138;2022-11-20T05:04:46;94897.00;;;-3.40
14784;BMP180;7483;50.498;12.138;2022-11-20T05:07:17;94851.00;;;-3.40
14784;BMP180;7483;50.498;12.138;2022-11-20T05:09:45;95022.00;;;-3.30
14784;BMP180;7483;50.498;12.138;2022-11-20T05:12:13;94863.00;;;-3.30
14784;BMP180;7483;50.498;12.138;2022-11-20T05:14:41;94851.00;;;-3.30
14784;BMP180;7483;50.498;12.138;2022-11-20T05:17:10;95059.00;;;-3.20
14784;BMP180;7483;50.498;12.138;2022-11-20T05:19:40;95064.00;;;-3.20
14784;BMP180;7483;50.498;12.138;2022-11-20T05:22:08;95104.00;;;-3.10
14784;BMP180;7483;50.498;12.138;2022-11-20T05:24:36;95038.00;;;-3.10
14784;BMP180;7483;50.498;12.138;2022-11-20T05:27:04;94753.00;;;-3.10
14784;BMP180;7483;50.498;12.138;2022-11-20T05:29:32;94891.00;;;-3.10
14784;BMP180;7483;50.498;12.138;2022-11-20T05:32:01;94841.00;;;-3.00
14784;BMP180;7483;50.498;12.138;2022-11-20T05:34:29;94835.00;;;-3.00
14784;BMP180;7483;50.498;12.138;2022-11-20T05:36:59;94809.00;;;-3.00
14784;BMP180;7483;50.498;12.138;2022-11-20T05:39:28;94904.00;;;-2.90
14784;BMP180;7483;50.498;12.138;2022-11-20T05:41:56;94891.00;;;-2.90
14784;BMP180;7483;50.498;12.138;2022-11-20T05:44:38;94940.00;;;-2.90
14784;BMP180;7483;50.498;12.138;2022-11-20T05:47:06;94918.00;;;-2.90
14784;BMP180;7483;50.498;12.138;2022-11-20T05:49:34;94945.00;;;-2.90
14784;BMP180;7483;50.498;12.138;2022-11-20T05:52:04;94987.00;;;-2.90
14784;BMP180;7483;50.498;12.138;2022-11-20T05:54:32;95006.00;;;-2.90
14784;BMP180;7483;50.498;12.138;2022-11-20T05:57:00;94972.00;;;-2.80
14784;BMP180;7483;50.498;12.138;2022-11-20T05:59:28;95051.00;;;-2.80
14784;BMP180;7483;50.498;12.138;2022-11-20T06:01:56;95022.00;;;-2.80
14784;BMP180;7483;50.498;12.138;2022-11-20T06:04:25;95064.00;;;-2.80
14784;BMP180;7483;50.498;12.138;2022-11-20T06:06:53;94910.00;;;-2.70
14784;BMP180;7483;50.498;12.138;2022-11-20T06:09:22;95204.00;;;-2.60
14784;BMP180;7483;50.498;12.138;2022-11-20T06:11:50;95131.00;;;-2.70
14784;BMP180;7483;50.498;12.138;2022-11-20T06:14:18;95029.00;;;-2.70
14784;BMP180;7483;50.498;12.138;2022-11-20T06:16:46;95012.00;;;-2.70
14784;BMP180;7483;50.498;12.138;2022-11-20T06:19:15;94981.00;;;-2.60
14784;BMP180;7483;50.498;12.138;2022-11-20T06:21:43;94874.00;;;-2.60
14784;BMP180;7483;50.498;12.138;2022-11-20T06:24:11;94853.00;;;-2.60
14784;BMP180;7483;50.498;12.138;2022-11-20T06:26:41;94881.00;;;-2.60
14784;BMP180;7483;50.498;12.138;2022-11-20T06:29:09;94915.00;;;-2.50
14784;BMP180;7483;50.498;12.138;2022-11-20T06:31:37;94936.00;;;-2.50
14784;BMP180;7483;50.498;12.138;2022-11-20T06:34:06;94921.00;;;-2.50
14784;BMP180;7483;50.498;12.138;2022-11-20T06:36:34;94908.00;;;-2.40
14784;BMP180;7483;50.498;12.138;2022-11-20T06:39:03;94718.00;;;-2.50
14784;BMP180;7483;50.498;12.138;2022-11-20T06:41:31;94917.00;;;-2.50
14784;BMP180;7483;50.498;12.138;2022-11-20T06:44:01;94965.00;;;-2.40
14784;BMP180;7483;50.498;12.138;2022-11-20T06:46:29;95053.00;;;-2.40
14784;BMP180;7483;50.498;12.138;2022-11-20T06:48:57;95124.00;;;-2.40
14784;BMP180;7483;50.498;12.138;2022-11-20T06:51:25;95107.00;;;-2.40
14784;BMP180;7483;50.498;12.138;2022-11-20T06:53:53;95179.00;;;-2.30
14784;BMP180;7483;50.498;12.138;2022-11-20T06:56:22;95048.00;;;-2.30
14784;BMP180;7483;50.498;12.138;2022-11-20T06:58:50;94936.00;;;-2.40
14784;BMP180;7483;50.498;12.138;2022-11-20T07:01:19;95009.00;;;-2.30
14784;BMP180;7483;50.498;12.138;2022-11-20T07:03:49;95103.00;;;-2.30
14784;BMP180;7483;50.498;12.138;2022-11-20T07:06:20;94845.00;;;-2.30
14784;BMP180;7483;50.498;12.138;2022-11-20T07:08:50;94933.00;;;-2.30
14784;BMP180;7483;50.498;12.138;2022-11-20T07:11:19;95002.00;;;-2.30
14784;BMP180;7483;50.498;12.138;2022-11-20T07:13:51;94712.00;;;-2.30
14784;BMP180;7483;50.498;12.138;2022-11-20T07:16:20;94675.00;;;-2.30
14784;BMP180;7483;50.498;12.138;2022-11-20T07:18:48;94702.00;;;-2.30
14784;BMP180;7483;50.498;12.138;2022-11-20T07:21:17;94709.00;;;-2.40
14784;BMP180;7483;50.498;12.138;2022-11-20T07:23:45;94770.00;;;-2.30
14784;BMP180;7483;50.498;12.138;2022-11-20T07:26:13;94947.00;;;-2.30
14784;BMP180;7483;50.498;12.138;2022-11-20T07:28:44;94966.00;;;-2.30
14784;BMP180;7483;50.498;12.138;2022-11-20T07:31:13;94923.00;;;-2.20
14784;BMP180;7483;50.498;12.138;2022-11-20T07:33:46;95000.00;;;-2.10
14784;BMP180;7483;50.498;12.138;2022-11-20T07:36:15;94926.00;;;-2.10
14784;BMP180;7483;50.498;12.138;2022-11-20T07:38:43;95030.00;;;-2.10
14784;BMP180;7483;50.498;12.138;2022-11-20T07:41:11;94969.00;;;-2.10
14784;BMP180;7483;50.498;12.138;2022-11-20T07:43:39;94840.00;;;-2.10
14784;BMP180;7483;50.498;12.138;2022-11-20T07:46:07;94770.00;;;-2.10
14784;BMP180;7483;50.498;12.138;2022-11-20T07:48:35;94850.00;;;-2.00
14784;BMP180;7483;50.498;12.138;2022-11-20T07:51:05;94990.00;;;-2.10
14784;BMP180;7483;50.498;12.138;2022-11-20T07:53:33;94808.00;;;-2.10
14784;BMP180;7483;50.498;12.138;2022-11-20T07:56:02;94837.00;;;-2.00
14784;BMP180;7483;50.498;12.138;2022-11-20T07:58:31;94855.00;;;-1.90
14784;BMP180;7483;50.498;12.138;2022-11-20T08:01:05;94709.00;;;-2.00
14784;BMP180;7483;50.498;12.138;2022-11-20T08:03:34;94936.00;;;-2.00
14784;BMP180;7483;50.498;12.138;2022-11-20T08:06:07;95010.00;;;-1.90
14784;BMP180;7483;50.498;12.138;2022-11-20T08:08:35;94900.00;;;-1.90
14784;BMP180;7483;50.498;12.138;2022-11-20T08:11:08;94902.00;;;-1.90
14784;BMP180;7483;50.498;12.138;2022-11-20T08:13:54;94761.00;;;-1.80
14784;BMP180;7483;50.498;12.138;2022-11-20T08:16:42;94757.00;;;-1.70
14784;BMP180;7483;50.498;12.138;2022-11-20T08:19:11;94656.00;;;-1.70
14784;BMP180;7483;50.498;12.138;2022-11-20T08:21:41;94778.00;;;-1.60
14784;BMP180;7483;50.498;12.138;2022-11-20T08:24:11;94841.00;;;-1.60
14784;BMP180;7483;50.498;12.138;2022-11-20T08:26:40;94908.00;;;-1.60
14784;BMP180;7483;50.498;12.138;2022-11-20T08:29:08;94841.00;;;-1.50
14784;BMP180;7483;50.498;12.138;2022-11-20T08:31:37;94901.00;;;-1.50
14784;BMP180;7483;50.498;12.138;2022-11-20T08:34:06;94904.00;;;-1.50
14784;BMP180;7483;50.498;12.138;2022-11-20T08:36:36;94876.00;;;-1.50
14784;BMP180;7483;50.498;12.138;2022-11-20T08:39:05;94926.00;;;-1.50
14784;BMP180;7483;50.498;12.138;2022-11-20T08:41:33;95030.00;;;-1.40
14784;BMP180;7483;50.498;12.138;2022-11-20T08:44:06;94828.00;;;-1.80
14784;BMP180;7483;50.498;12.138;2022-11-20T08:46:36;94810.00;;;-1.50
14784;BMP180;7483;50.498;12.138;2022-11-20T08:49:07;94808.00;;;-1.50
14784;BMP180;7483;50.498;12.138;2022-11-20T08:51:36;94834.00;;;-1.40
14784;BMP180;7483;50.498;12.138;2022-11-20T08:54:06;94860.00;;;-1.40
14784;BMP180;7483;50.498;12.138;2022-11-20T08:56:35;94899.00;;;-1.40
14784;BMP180;7483;50.498;12.138;2022-11-20T08:59:03;94860.00;;;-1.40
14784;BMP180;7483;50.498;12.138;2022-11-20T09:01:52;95191.00;;;-1.30
14784;BMP180;7483;50.498;12.138;2022-11-20T09:04:20;95392.00;;;-1.20
14784;BMP180;7483;50.498;12.138;2022-11-20T09:06:48;95278.00;;;-1.20
14784;BMP180;7483;50.498;12.138;2022-11-20T09:09:19;95282.00;;;-1.10
14784;BMP180;7483;50.498;12.138;2022-11-20T09:11:48;95110.00;;;-1.10
14784;BMP180;7483;50.498;12.138;2022-11-20T09:14:16;95188.00;;;-0.90
14784;BMP180;7483;50.498;12.138;2022-11-20T09:16:45;95164.00;;;-1.00
14784;BMP180;7483;50.498;12.138;2022-11-20T09:19:16;95305.00;;;-0.80
14784;BMP180;7483;50.498;12.138;2022-11-20T09:22:04;95190.00;;;-0.80
14784;BMP180;7483;50.498;12.138;2022-11-20T09:24:33;95190.00;;;-0.80
14784;BMP180;7483;50.498;12.138;2022-11-20T09:27:03;95258.00;;;-0.80
14784;BMP180;7483;50.498;12.138;2022-11-20T09:29:32;95180.00;;;-0.80
14784;BMP180;7483;50.498;12.138;2022-11-20T09:32:00;95205.00;;;-0.70
14784;BMP180;7483;50.498;12.138;2022-11-20T09:34:28;95242.00;;;-0.80
14784;BMP180;7483;50.498;12.138;2022-11-20T09:36:56;95114.00;;;-0.80
14784;BMP180;7483;50.498;12.138;2022-11-20T09:39:30;95117.00;;;-0.80
14784;BMP180;7483;50.498;12.138;2022-11-20T09:42:28;95112.00;;;-0.70
14784;BMP180;7483;50.498;12.138;2022-11-20T09:45:16;95056.00;;;-0.80
14784;BMP180;7483;50.498;12.138;2022-11-20T09:48:03;95131.00;;;-0.70
14784;BMP180;7483;50.498;12.138;2022-11-20T09:50:36;95181.00;;;-0.60
14784;BMP180;7483;50.498;12.138;2022-11-20T09:53:19;95145.00;;;-0.60
14784;BMP180;7483;50.498;12.138;2022-11-20T09:55:51;95096.00;;;-0.50
14784;BMP180;7483;50.498;12.138;2022-11-20T09:58:30;95184.00;;;-0.50
14784;BMP180;7483;50.498;12.138;2022-11-20T10:01:11;95269.00;;;-0.50
14784;BMP180;7483;50.498;12.138;2022-11-20T10:03:51;95247.00;;;-0.50
14784;BMP180;7483;50.498;12.138;2022-11-20T10:06:29;95132.00;;;-0.50
14784;BMP180;7483;50.498;12.138;2022-11-20T10:09:16;95176.00;;;-0.50
14784;BMP180;7483;50.498;12.138;2022-11-20T10:11:53;95233.00;;;-0.40
14784;BMP180;7483;50.498;12.138;2022-11-20T10:14:36;95135.00;;;-0.40
14784;BMP180;7483;50.498;12.138;2022-11-20T10:17:20;95128.00;;;-0.40
14784;BMP180;7483;50.498;12.138;2022-11-20T10:20:14;95213.00;;;-0.20
14784;BMP180;7483;50.498;12.138;2022-11-20T10:23:01;95187.00;;;-0.10
14784;BMP180;7483;50.498;12.138;2022-11-20T10:25:39;95069.00;;;-0.10
14784;BMP180;7483;50.498;12.138;2022-11-20T10:28:26;95225.00;;;0.00
14784;BMP180;7483;50.498;12.138;2022-11-20T10:31:04;95259.00;;;-0.10
14784;BMP180;7483;50.498;12.138;2022-11-20T10:33:39;95192.00;;;0.40
14784;BMP180;7483;50.498;12.138;2022-11-20T10:36:34;95238.00;;;0.50
14784;BMP180;7483;50.498;12.138;2022-11-20T10:39:14;95135.00;;;0.50
14784;BMP180;7483;50.498;12.138;2022-11-20T10:41:50;95244.00;;;0.40
14784;BMP180;7483;50.498;12.138;2022-11-20T10:44:21;95108.00;;;0.40
14784;BMP180;7483;50.498;12.138;2022-11-20T10:47:12;95194.00;;;0.40
14784;BMP180;7483;50.498;12.138;2022-11-20T10:49:42;95070.00;;;0.40
14784;BMP180;7483;50.498;12.138;2022-11-20T10:52:23;95779.00;;;0.60
14784;BMP180;7483;50.498;12.138;2022-11-20T10:55:00;96058.00;;;0.70
14784;BMP180;7483;50.498;12.138;2022-11-20T10:57:50;96072.00;;;0.70
14784;BMP180;7483;50.498;12.138;2022-11-20T11:00:19;96065.00;;;0.60
14784;BMP180;7483;50.498;12.138;2022-11-20T11:02:51;96196.00;;;0.80
14784;BMP180;7483;50.498;12.138;2022-11-20T11:05:34;96185.00;;;0.70
14784;BMP180;7483;50.498;12.138;2022-11-20T11:08:09;96173.00;;;0.80
14784;BMP180;7483;50.498;12.138;2022-11-20T11:10:46;96168.00;;;0.80
14784;BMP180;7483;50.498;12.138;2022-11-20T11:13:24;96184.00;;;0.80
14784;BMP180;7483;50.498;12.138;2022-11-20T11:15:53;96160.00;;;0.80
14784;BMP180;7483;50.498;12.138;2022-11-20T11:18:28;96185.00;;;0.90
14784;BMP180;7483;50.498;12.138;2022-11-20T11:20:59;96157.00;;;1.00
14784;BMP180;7483;50.498;12.138;2022-11-20T11:23:34;96158.00;;;1.00
14784;BMP180;7483;50.498;12.138;2022-11-20T11:26:06;96156.00;;;1.00
14784;BMP180;7483;50.498;12.138;2022-11-20T11:28:34;96171.00;;;1.10
14784;BMP180;7483;50.498;12.138;2022-11-20T11:31:02;96167.00;;;1.10
14784;BMP180;7483;50.498;12.138;2022-11-20T11:33:33;96174.00;;;1.10
14784;BMP180;7483;50.498;12.138;2022-11-20T11:36:05;96183.00;;;1.00
14784;BMP180;7483;50.498;12.138;2022-11-20T11:38:44;96064.00;;;1.00
14784;BMP180;7483;50.498;12.138;2022-11-20T11:41:19;96154.00;;;1.10
14784;BMP180;7483;50.498;12.138;2022-11-20T11:43:52;96147.00;;;1.10
14784;BMP180;7483;50.498;12.138;2022-11-20T11:46:43;96106.00;;;1.10
14784;BMP180;7483;50.498;12.138;2022-11-20T11:49:18;96149.00;;;1.00
14784;BMP180;7483;50.498;12.138;2022-11-20T11:52:04;96155.00;;;1.10
14784;BMP180;7483;50.498;12.138;2022-11-20T11:54:43;96150.00;;;1.10
14784;BMP180;7483;50.498;12.138;2022-11-20T11:57:20;96148.00;;;1.10
14784;BMP180;7483;50.498;12.138;2022-11-20T12:00:01;96175.00;;;1.10
14784;BMP180;7483;50.498;12.138;2022-11-20T12:02:37;96187.00;;;1.20
14784;BMP180;7483;50.498;12.138;2022-11-20T12:05:18;96152.00;;;1.20
14784;BMP180;7483;50.498;12.138;2022-11-20T12:07:49;96181.00;;;1.20
14784;BMP180;7483;50.498;12.138;2022-11-20T12:10:23;96155.00;;;1.10
14784;BMP180;7483;50.498;12.138;2022-11-20T12:13:18;96075.00;;;1.10
14784;BMP180;7483;50.498;12.138;2022-11-20T12:15:48;96149.00;;;1.10
14784;BMP180;7483;50.498;12.138;2022-11-20T12:18:20;96151.00;;;1.00
14784;BMP180;7483;50.498;12.138;2022-11-20T12:21:07;96133.00;;;1.00
14784;BMP180;7483;50.498;12.138;2022-11-20T12:23:53;96138.00;;;1.10
14784;BMP180;7483;50.498;12.138;2022-11-20T12:26:45;96142.00;;;1.10
14784;BMP180;7483;50.498;12.138;2022-11-20T12:29:30;96140.00;;;1.10
14784;BMP180;7483;50.498;12.138;2022-11-20T12:32:35;96127.00;;;1.20
14784;BMP180;7483;50.498;12.138;2022-11-20T12:35:26;96139.00;;;1.20
14784;BMP180;7483;50.498;12.138;2022-11-20T12:38:20;96128.00;;;1.30
14784;BMP180;7483;50.498;12.138;2022-11-20T12:41:01;96131.00;;;1.50
14784;BMP180;7483;50.498;12.138;2022-11-20T12:43:39;96115.00;;;1.70
14784;BMP180;7483;50.498;12.138;2022-11-20T12:46:40;96115.00;;;1.90
14784;BMP180;7483;50.498;12.138;2022-11-20T12:49:26;96094.00;;;1.90
14784;BMP180;7483;50.498;12.138;2022-11-20T12:52:25;96125.00;;;1.80
14784;BMP180;7483;50.498;12.138;2022-11-20T12:55:27;96117.00;;;1.70
14784;BMP180;7483;50.498;12.138;2022-11-20T12:58:06;96114.00;;;1.60
14784;BMP180;7483;50.498;12.138;2022-11-20T13:00:59;96144.00;;;1.50
14784;BMP180;7483;50.498;12.138;2022-11-20T13:03:39;96133.00;;;1.50
14784;BMP180;7483;50.498;12.138;2022-11-20T13:06:15;96131.00;;;1.40
14784;BMP180;7483;50.498;12.138;2022-11-20T13:08:50;96129.00;;;1.40
14784;BMP180;7483;50.498;12.138;2022-11-20T13:11:33;96130.00;;;1.40
14784;BMP180;7483;50.498;12.138;2022-11-20T13:14:21;96129.00;;;1.30
14784;BMP180;7483;50.498;12.138;2022-11-20T13:16:59;96109.00;;;1.30
14784;BMP180;7483;50.498;12.138;2022-11-20T13:19:32;96130.00;;;1.30
14784;BMP180;7483;50.498;12.138;2022-11-20T13:22:01;96131.00;;;1.30
14784;BMP180;7483;50.498;12.138;2022-11-20T13:24:31;96143.00;;;1.30
14784;BMP180;7483;50.498;12.138;2022-11-20T13:27:05;96139.00;;;1.30
14784;BMP180;7483;50.498;12.138;2022-11-20T13:29:47;96150.00;;;1.30
14784;BMP180;7483;50.498;12.138;2022-11-20T13:32:26;96159.00;;;1.40
14784;BMP180;7483;50.498;12.138;2022-11-20T13:35:01;96094.00;;;1.50
14784;BMP180;7483;50.498;12.138;2022-11-20T13:37:32;96143.00;;;1.50
14784;BMP180;7483;50.498;12.138;2022-11-20T13:40:22;96149.00;;;1.60
14784;BMP180;7483;50.498;12.138;2022-11-20T13:43:14;96159.00;;;1.60
14784;BMP180;7483;50.498;12.138;2022-11-20T13:45:56;96128.00;;;1.60
14784;BMP180;7483;50.498;12.138;2022-11-20T13:48:30;96138.00;;;1.60
14784;BMP180;7483;50.498;12.138;2022-11-20T13:51:13;96123.00;;;1.50
14784;BMP180;7483;50.498;12.138;2022-11-20T13:54:30;96116.00;;;1.40
14784;BMP180;7483;50.498;12.138;2022-11-20T13:57:20;96135.00;;;1.50
14784;BMP180;7483;50.498;12.138;2022-11-20T14:00:00;96116.00;;;1.50
14784;BMP180;7483;50.498;12.138;2022-11-20T14:02:37;96133.00;;;1.50
14784;BMP180;7483;50.498;12.138;2022-11-20T14:05:05;96117.00;;;1.40
14784;BMP180;7483;50.498;12.138;2022-11-20T14:07:42;96134.00;;;1.40
14784;BMP180;7483;50.498;12.138;2022-11-20T14:10:22;96126.00;;;1.40
14784;BMP180;7483;50.498;12.138;2022-11-20T14:12:57;96137.00;;;1.30
14784;BMP180;7483;50.498;12.138;2022-11-20T14:15:30;96087.00;;;1.20
14784;BMP180;7483;50.498;12.138;2022-11-20T14:17:59;96133.00;;;1.20
14784;BMP180;7483;50.498;12.138;2022-11-20T14:20:39;96134.00;;;1.30
14784;BMP180;7483;50.498;12.138;2022-11-20T14:23:10;96123.00;;;1.30
14784;BMP180;7483;50.498;12.138;2022-11-20T14:25:43;96126.00;;;1.30
14784;BMP180;7483;50.498;12.138;2022-11-20T14:28:24;96131.00;;;1.30
14784;BMP180;7483;50.498;12.138;2022-11-20T14:30:56;96134.00;;;1.20
14784;BMP180;7483;50.498;12.138;2022-11-20T14:33:26;96144.00;;;1.20
14784;BMP180;7483;50.498;12.138;2022-11-20T14:35:57;96124.00;;;1.20
14784;BMP180;7483;50.498;12.138;2022-11-20T14:38:28;96137.00;;;1.20
14784;BMP180;7483;50.498;12.138;2022-11-20T14:41:07;96118.00;;;1.20
14784;BMP180;7483;50.498;12.138;2022-11-20T14:43:36;96148.00;;;1.30
14784;BMP180;7483;50.498;12.138;2022-11-20T14:46:09;96134.00;;;1.20